createdAt,value
2018-09-11T00:00:32.675Z,1018.02
2018-09-11T00:01:32.699Z,1017.98
2018-09-11T00:02:32.721Z,1017.94
2018-09-11T00:03:32.747Z,1017.87
2018-09-11T00:04:32.770Z,1017.89
2018-09-11T00:05:32.801Z,1017.93
2018-09-11T00:06:32.817Z,1017.90
2018-09-11T00:07:32.844Z,1017.90
2018-09-11T00:08:32.865Z,1017.93
2018-09-11T00:09:32.887Z,1017.91
2018-09-11T00:10:32.913Z,1017.92
2018-09-11T00:11:32.936Z,1017.85
2018-09-11T00:12:32.963Z,1017.86
2018-09-11T00:13:32.984Z,1017.90
2018-09-11T00:14:33.008Z,1017.87
2018-09-11T00:15:33.032Z,1017.91
2018-09-11T00:16:33.054Z,1017.93
2018-09-11T00:17:33.078Z,1017.87
2018-09-11T00:18:33.101Z,1017.83
2018-09-11T00:19:33.125Z,1017.81
2018-09-11T00:20:33.156Z,1017.81
2018-09-11T00:21:33.174Z,1017.84
2018-09-11T00:22:33.198Z,1017.84
2018-09-11T00:23:33.223Z,1017.88
2018-09-11T00:24:33.246Z,1017.87
2018-09-11T00:25:33.268Z,1017.92
2018-09-11T00:26:33.291Z,1017.89
2018-09-11T00:27:33.319Z,1017.91
2018-09-11T00:28:33.340Z,1017.88
2018-09-11T00:29:33.364Z,1017.85
2018-09-11T00:30:33.387Z,1017.81
2018-09-11T00:31:33.411Z,1017.80
2018-09-11T00:32:33.434Z,1017.73
2018-09-11T00:33:33.457Z,1017.75
2018-09-11T00:34:33.484Z,1017.76
2018-09-11T00:35:33.505Z,1017.74
2018-09-11T00:36:33.529Z,1017.70
2018-09-11T00:37:33.554Z,1017.69
2018-09-11T00:38:33.576Z,1017.67
2018-09-11T00:39:33.599Z,1017.65
2018-09-11T00:40:33.626Z,1017.67
2018-09-11T00:41:33.649Z,1017.66
2018-09-11T00:42:33.679Z,1017.69
2018-09-11T00:43:33.695Z,1017.70
2018-09-11T00:44:33.720Z,1017.69
2018-09-11T00:45:33.746Z,1017.69
2018-09-11T00:46:33.767Z,1017.66
2018-09-11T00:47:33.792Z,1017.68
2018-09-11T00:48:33.814Z,1017.67
2018-09-11T00:49:33.844Z,1017.68
2018-09-11T00:50:33.862Z,1017.66
2018-09-11T00:51:33.886Z,1017.73
2018-09-11T00:52:33.911Z,1017.72
2018-09-11T00:53:33.934Z,1017.77
2018-09-11T00:54:33.956Z,1017.81
2018-09-11T00:55:33.981Z,1017.83
2018-09-11T00:56:34.004Z,1017.84
2018-09-11T00:57:34.029Z,1017.85
2018-09-11T00:58:34.052Z,1017.85
2018-09-11T00:59:34.078Z,1017.82
2018-09-11T01:00:34.100Z,1017.86
2018-09-11T01:01:34.123Z,1017.80
2018-09-11T01:02:34.147Z,1017.82
2018-09-11T01:03:34.172Z,1017.76
2018-09-11T01:04:34.196Z,1017.73
2018-09-11T01:05:34.220Z,1017.70
2018-09-11T01:06:34.241Z,1017.72
2018-09-11T01:07:34.266Z,1017.73
2018-09-11T01:08:34.291Z,1017.72
2018-09-11T01:09:34.315Z,1017.72
2018-09-11T01:10:34.336Z,1017.71
2018-09-11T01:11:34.363Z,1017.67
2018-09-11T01:12:34.384Z,1017.74
2018-09-11T01:13:34.408Z,1017.75
2018-09-11T01:14:34.432Z,1017.71
2018-09-11T01:15:34.456Z,1017.73
2018-09-11T01:16:34.479Z,1017.75
2018-09-11T01:17:34.507Z,1017.75
2018-09-11T01:18:34.527Z,1017.78
2018-09-11T01:19:34.550Z,1017.74
2018-09-11T01:20:34.575Z,1017.76
2018-09-11T01:21:34.598Z,1017.69
2018-09-11T01:22:34.621Z,1017.75
2018-09-11T01:23:34.645Z,1017.73
2018-09-11T01:24:34.669Z,1017.71
2018-09-11T01:25:34.693Z,1017.71
2018-09-11T01:26:34.717Z,1017.73
2018-09-11T01:27:34.743Z,1017.72
2018-09-11T01:28:34.766Z,1017.68
2018-09-11T01:29:34.788Z,1017.74
2018-09-11T01:30:34.814Z,1017.74
2018-09-11T01:31:34.835Z,1017.72
2018-09-11T01:32:34.860Z,1017.68
2018-09-11T01:33:34.885Z,1017.63
2018-09-11T01:34:34.906Z,1017.65
2018-09-11T01:35:34.930Z,1017.66
2018-09-11T01:36:34.954Z,1017.70
2018-09-11T01:37:34.979Z,1017.75
2018-09-11T01:38:35.002Z,1017.74
2018-09-11T01:39:35.025Z,1017.75
2018-09-11T01:40:35.049Z,1017.78
2018-09-11T01:41:35.073Z,1017.78
2018-09-11T01:42:35.099Z,1017.80
2018-09-11T01:43:35.120Z,1017.79
2018-09-11T01:44:35.145Z,1017.77
2018-09-11T01:45:35.169Z,1017.73
2018-09-11T01:46:35.191Z,1017.72
2018-09-11T01:47:35.216Z,1017.71
2018-09-11T01:48:35.240Z,1017.72
2018-09-11T01:49:35.264Z,1017.69
2018-09-11T01:50:35.287Z,1017.69
2018-09-11T01:51:35.311Z,1017.68
2018-09-11T01:52:35.334Z,1017.65
2018-09-11T01:53:35.359Z,1017.64
2018-09-11T01:54:35.381Z,1017.67
2018-09-11T01:55:35.406Z,1017.64
2018-09-11T01:56:35.430Z,1017.64
2018-09-11T01:57:35.454Z,1017.69
2018-09-11T01:58:35.476Z,1017.68
2018-09-11T01:59:35.500Z,1017.68
2018-09-11T02:00:35.525Z,1017.68
2018-09-11T02:01:35.548Z,1017.67
2018-09-11T02:02:35.574Z,1017.64
2018-09-11T02:03:35.597Z,1017.66
2018-09-11T02:04:35.619Z,1017.65
2018-09-11T02:05:35.645Z,1017.64
2018-09-11T02:06:35.670Z,1017.64
2018-09-11T02:07:35.690Z,1017.62
2018-09-11T02:08:35.713Z,1017.63
2018-09-11T02:09:35.740Z,1017.61
2018-09-11T02:10:35.760Z,1017.60
2018-09-11T02:11:35.786Z,1017.59
2018-09-11T02:12:35.811Z,1017.64
2018-09-11T02:13:35.832Z,1017.62
2018-09-11T02:14:35.855Z,1017.65
2018-09-11T02:15:35.879Z,1017.63
2018-09-11T02:16:35.903Z,1017.63
2018-09-11T02:17:35.927Z,1017.59
2018-09-11T02:18:35.950Z,1017.55
2018-09-11T02:19:35.975Z,1017.58
2018-09-11T02:20:35.998Z,1017.61
2018-09-11T02:21:36.022Z,1017.61
2018-09-11T02:22:36.046Z,1017.64
2018-09-11T02:23:36.069Z,1017.64
2018-09-11T02:24:36.093Z,1017.65
2018-09-11T02:25:36.118Z,1017.65
2018-09-11T02:26:36.142Z,1017.66
2018-09-11T02:27:36.164Z,1017.58
2018-09-11T02:28:36.191Z,1017.56
2018-09-11T02:29:36.212Z,1017.61
2018-09-11T02:30:36.235Z,1017.60
2018-09-11T02:31:36.271Z,1017.61
2018-09-11T02:32:36.283Z,1017.70
2018-09-11T02:33:36.307Z,1017.69
2018-09-11T02:34:36.329Z,1017.69
2018-09-11T02:35:36.361Z,1017.69
2018-09-11T02:36:36.377Z,1017.69
2018-09-11T02:37:36.401Z,1017.72
2018-09-11T02:38:36.425Z,1017.74
2018-09-11T02:39:36.452Z,1017.80
2018-09-11T02:40:36.473Z,1017.82
2018-09-11T02:41:36.497Z,1017.80
2018-09-11T02:42:36.519Z,1017.82
2018-09-11T02:43:36.544Z,1017.76
2018-09-11T02:44:36.568Z,1017.83
2018-09-11T02:45:36.595Z,1017.82
2018-09-11T02:46:36.614Z,1017.83
2018-09-11T02:48:36.664Z,1017.76
2018-09-11T02:49:36.687Z,1017.72
2018-09-11T02:50:36.709Z,1017.71
2018-09-11T02:51:36.733Z,1017.68
2018-09-11T02:52:36.757Z,1017.71
2018-09-11T02:53:36.782Z,1017.69
2018-09-11T02:54:36.807Z,1017.65
2018-09-11T02:55:36.830Z,1017.64
2018-09-11T02:56:36.852Z,1017.67
2018-09-11T02:57:36.876Z,1017.63
2018-09-11T02:58:36.899Z,1017.61
2018-09-11T02:59:36.922Z,1017.62
2018-09-11T03:00:36.949Z,1017.53
2018-09-11T03:01:36.969Z,1017.52
2018-09-11T03:02:37.020Z,1017.51
2018-09-11T03:03:37.017Z,1017.49
2018-09-11T03:04:37.041Z,1017.47
2018-09-11T03:05:37.065Z,1017.46
2018-09-11T03:06:37.088Z,1017.49
2018-09-11T03:07:37.112Z,1017.44
2018-09-11T03:08:37.136Z,1017.44
2018-09-11T03:09:37.160Z,1017.42
2018-09-11T03:10:37.183Z,1017.38
2018-09-11T03:11:37.206Z,1017.38
2018-09-11T03:12:37.231Z,1017.39
2018-09-11T03:13:37.256Z,1017.36
2018-09-11T03:14:37.279Z,1017.26
2018-09-11T03:15:37.307Z,1017.29
2018-09-11T03:16:37.325Z,1017.24
2018-09-11T03:17:37.349Z,1017.27
2018-09-11T03:18:37.372Z,1017.21
2018-09-11T03:19:37.396Z,1017.19
2018-09-11T03:20:37.420Z,1017.22
2018-09-11T03:21:37.443Z,1017.21
2018-09-11T03:22:37.467Z,1017.17
2018-09-11T03:23:37.495Z,1017.17
2018-09-11T03:24:37.512Z,1017.20
2018-09-11T03:25:37.541Z,1017.18
2018-09-11T03:26:37.563Z,1017.20
2018-09-11T03:27:37.585Z,1017.19
2018-09-11T03:28:37.608Z,1017.20
2018-09-11T03:29:37.634Z,1017.17
2018-09-11T03:30:37.656Z,1017.16
2018-09-11T03:31:37.679Z,1017.14
2018-09-11T03:32:37.705Z,1017.13
2018-09-11T03:33:37.728Z,1017.09
2018-09-11T03:34:37.752Z,1017.10
2018-09-11T03:35:37.774Z,1017.08
2018-09-11T03:36:37.798Z,1017.06
2018-09-11T03:37:37.823Z,1017.05
2018-09-11T03:38:37.844Z,1017.09
2018-09-11T03:39:37.869Z,1017.09
2018-09-11T03:40:37.892Z,1017.04
2018-09-11T03:41:37.916Z,1017.06
2018-09-11T03:42:37.938Z,1017.05
2018-09-11T03:43:37.962Z,1017.03
2018-09-11T03:44:37.989Z,1017.02
2018-09-11T03:45:38.010Z,1016.98
2018-09-11T03:46:38.037Z,1016.99
2018-09-11T03:47:38.057Z,1016.98
2018-09-11T03:48:38.081Z,1016.99
2018-09-11T03:49:38.104Z,1016.94
2018-09-11T03:50:38.128Z,1016.95
2018-09-11T03:51:38.151Z,1016.94
2018-09-11T03:52:38.175Z,1016.91
2018-09-11T03:53:38.198Z,1016.88
2018-09-11T03:54:38.220Z,1016.88
2018-09-11T03:55:38.247Z,1016.87
2018-09-11T03:56:38.270Z,1016.84
2018-09-11T03:57:38.293Z,1016.86
2018-09-11T03:58:38.316Z,1016.81
2018-09-11T03:59:38.340Z,1016.89
2018-09-11T04:00:38.365Z,1016.81
2018-09-11T04:01:38.388Z,1016.79
2018-09-11T04:02:38.428Z,1016.78
2018-09-11T04:03:38.435Z,1016.75
2018-09-11T04:04:38.457Z,1016.75
2018-09-11T04:05:38.548Z,1016.74
2018-09-11T04:06:38.509Z,1016.77
2018-09-11T04:07:38.529Z,1016.72
2018-09-11T04:08:38.555Z,1016.71
2018-09-11T04:09:38.576Z,1016.73
2018-09-11T04:10:38.601Z,1016.73
2018-09-11T04:11:38.622Z,1016.73
2018-09-11T04:12:38.646Z,1016.70
2018-09-11T04:13:38.670Z,1016.70
2018-09-11T04:14:38.692Z,1016.66
2018-09-11T04:15:38.716Z,1016.70
2018-09-11T04:16:38.744Z,1016.63
2018-09-11T04:17:38.763Z,1016.64
2018-09-11T04:18:38.787Z,1016.68
2018-09-11T04:19:38.810Z,1016.62
2018-09-11T04:20:38.906Z,1016.61
2018-09-11T04:21:38.862Z,1016.63
2018-09-11T04:22:38.880Z,1016.59
2018-09-11T04:23:38.907Z,1016.61
2018-09-11T04:24:38.929Z,1016.60
2018-09-11T04:25:38.989Z,1016.65
2018-09-11T04:26:38.975Z,1016.68
2018-09-11T04:27:38.999Z,1016.64
2018-09-11T04:28:39.022Z,1016.65
2018-09-11T04:29:39.048Z,1016.63
2018-09-11T04:30:39.069Z,1016.60
2018-09-11T04:31:39.092Z,1016.58
2018-09-11T04:32:39.117Z,1016.54
2018-09-11T04:33:39.141Z,1016.53
2018-09-11T04:34:39.162Z,1016.50
2018-09-11T04:35:39.186Z,1016.51
2018-09-11T04:36:39.213Z,1016.54
2018-09-11T04:37:39.234Z,1016.51
2018-09-11T04:38:39.257Z,1016.57
2018-09-11T04:39:39.281Z,1016.56
2018-09-11T04:40:39.304Z,1016.57
2018-09-11T04:41:39.330Z,1016.56
2018-09-11T04:42:39.350Z,1016.53
2018-09-11T04:43:39.375Z,1016.50
2018-09-11T04:44:39.398Z,1016.50
2018-09-11T04:45:39.424Z,1016.50
2018-09-11T04:46:39.444Z,1016.50
2018-09-11T04:47:39.470Z,1016.54
2018-09-11T04:48:39.494Z,1016.50
2018-09-11T04:49:39.516Z,1016.53
2018-09-11T04:50:39.546Z,1016.59
2018-09-11T04:51:39.562Z,1016.65
2018-09-11T04:52:39.592Z,1016.68
2018-09-11T04:53:39.609Z,1016.69
2018-09-11T04:54:39.632Z,1016.68
2018-09-11T04:55:39.657Z,1016.67
2018-09-11T04:56:39.680Z,1016.66
2018-09-11T04:57:39.703Z,1016.63
2018-09-11T04:58:39.726Z,1016.66
2018-09-11T04:59:39.750Z,1016.61
2018-09-11T05:00:39.776Z,1016.60
2018-09-11T05:01:39.798Z,1016.53
2018-09-11T05:02:39.819Z,1016.56
2018-09-11T05:03:39.844Z,1016.53
2018-09-11T05:04:39.867Z,1016.50
2018-09-11T05:05:39.892Z,1016.46
2018-09-11T05:06:39.915Z,1016.49
2018-09-11T05:07:39.938Z,1016.47
2018-09-11T05:08:39.962Z,1016.49
2018-09-11T05:09:39.985Z,1016.49
2018-09-11T05:10:40.070Z,1016.45
2018-09-11T05:11:40.033Z,1016.38
2018-09-11T05:12:40.058Z,1016.42
2018-09-11T05:13:40.079Z,1016.42
2018-09-11T05:14:40.104Z,1016.36
2018-09-11T05:15:40.129Z,1016.32
2018-09-11T05:16:40.150Z,1016.37
2018-09-11T05:17:40.174Z,1016.35
2018-09-11T05:18:40.196Z,1016.41
2018-09-11T05:19:40.221Z,1016.39
2018-09-11T05:20:40.244Z,1016.41
2018-09-11T05:21:40.268Z,1016.42
2018-09-11T05:22:40.291Z,1016.39
2018-09-11T05:23:40.313Z,1016.37
2018-09-11T05:24:40.339Z,1016.38
2018-09-11T05:25:40.360Z,1016.39
2018-09-11T05:26:40.384Z,1016.30
2018-09-11T05:27:40.411Z,1016.30
2018-09-11T05:28:40.436Z,1016.22
2018-09-11T05:29:40.457Z,1016.22
2018-09-11T05:30:40.478Z,1016.20
2018-09-11T05:31:40.502Z,1016.18
2018-09-11T05:32:40.525Z,1016.18
2018-09-11T05:33:40.551Z,1016.16
2018-09-11T05:34:40.572Z,1016.21
2018-09-11T05:35:40.595Z,1016.23
2018-09-11T05:36:40.622Z,1016.28
2018-09-11T05:37:40.644Z,1016.33
2018-09-11T05:38:40.666Z,1016.36
2018-09-11T05:39:40.690Z,1016.37
2018-09-11T05:40:40.714Z,1016.37
2018-09-11T05:41:40.737Z,1016.41
2018-09-11T05:42:40.760Z,1016.47
2018-09-11T05:43:40.782Z,1016.42
2018-09-11T05:44:40.808Z,1016.45
2018-09-11T05:45:40.832Z,1016.42
2018-09-11T05:46:40.853Z,1016.43
2018-09-11T05:47:40.878Z,1016.44
2018-09-11T05:48:40.903Z,1016.43
2018-09-11T05:49:40.924Z,1016.38
2018-09-11T05:50:40.948Z,1016.39
2018-09-11T05:51:40.971Z,1016.39
2018-09-11T05:52:40.994Z,1016.39
2018-09-11T05:53:41.019Z,1016.39
2018-09-11T05:54:41.042Z,1016.39
2018-09-11T05:55:41.067Z,1016.38
2018-09-11T05:56:41.092Z,1016.40
2018-09-11T05:57:41.114Z,1016.39
2018-09-11T05:58:41.140Z,1016.41
2018-09-11T05:59:41.159Z,1016.44
2018-09-11T06:00:41.184Z,1016.45
2018-09-11T06:01:41.212Z,1016.52
2018-09-11T06:02:41.232Z,1016.56
2018-09-11T06:03:41.255Z,1016.57
2018-09-11T06:04:41.278Z,1016.62
2018-09-11T06:05:41.317Z,1016.64
2018-09-11T06:06:41.327Z,1016.61
2018-09-11T06:07:41.348Z,1016.69
2018-09-11T06:08:41.373Z,1016.64
2018-09-11T06:09:41.397Z,1016.64
2018-09-11T06:10:41.434Z,1016.72
2018-09-11T06:11:41.443Z,1016.73
2018-09-11T06:12:41.469Z,1016.78
2018-09-11T06:13:41.491Z,1016.85
2018-09-11T06:14:41.515Z,1016.78
2018-09-11T06:15:41.538Z,1016.81
2018-09-11T06:16:41.564Z,1016.83
2018-09-11T06:17:41.587Z,1016.76
2018-09-11T06:18:41.602Z,1016.66
2018-09-11T06:19:41.632Z,1016.65
2018-09-11T06:20:41.657Z,1016.66
2018-09-11T06:21:41.681Z,1016.71
2018-09-11T06:22:41.703Z,1016.65
2018-09-11T06:23:41.729Z,1016.69
2018-09-11T06:24:41.754Z,1016.73
2018-09-11T06:25:41.810Z,1016.74
2018-09-11T06:26:41.806Z,1016.73
2018-09-11T06:27:41.830Z,1016.69
2018-09-11T06:28:41.854Z,1016.66
2018-09-11T06:29:41.876Z,1016.66
2018-09-11T06:30:41.901Z,1016.68
2018-09-11T06:31:41.927Z,1016.62
2018-09-11T06:32:41.952Z,1016.61
2018-09-11T06:33:41.976Z,1016.56
2018-09-11T06:34:42.000Z,1016.49
2018-09-11T06:35:42.020Z,1016.59
2018-09-11T06:36:42.048Z,1016.56
2018-09-11T06:37:42.072Z,1016.57
2018-09-11T06:38:42.095Z,1016.56
2018-09-11T06:39:42.124Z,1016.58
2018-09-11T06:40:42.147Z,1016.56
2018-09-11T06:41:42.167Z,1016.64
2018-09-11T06:42:42.213Z,1016.69
2018-09-11T06:43:42.219Z,1016.71
2018-09-11T06:44:42.308Z,1016.64
2018-09-11T06:45:42.269Z,1016.58
2018-09-11T06:46:42.293Z,1016.53
2018-09-11T06:47:42.322Z,1016.49
2018-09-11T06:48:42.344Z,1016.43
2018-09-11T06:49:42.372Z,1016.43
2018-09-11T06:50:42.392Z,1016.44
2018-09-11T06:51:42.416Z,1016.40
2018-09-11T06:52:42.442Z,1016.44
2018-09-11T06:53:42.469Z,1016.40
2018-09-11T06:54:42.502Z,1016.40
2018-09-11T06:55:42.523Z,1016.39
2018-09-11T06:56:42.549Z,1016.54
2018-09-11T06:57:42.572Z,1016.47
2018-09-11T06:58:42.597Z,1016.36
2018-09-11T06:59:42.624Z,1016.31
2018-09-11T07:00:42.712Z,1016.28
2018-09-11T07:01:42.689Z,1016.25
2018-09-11T07:02:42.701Z,1016.43
2018-09-11T07:03:42.727Z,1016.35
2018-09-11T07:04:42.756Z,1016.42
2018-09-11T07:05:42.774Z,1016.49
2018-09-11T07:06:42.803Z,1016.42
2018-09-11T07:07:42.828Z,1016.42
2018-09-11T07:08:42.855Z,1016.52
2018-09-11T07:09:42.881Z,1016.62
2018-09-11T07:10:42.913Z,1016.53
2018-09-11T07:11:42.930Z,1016.49
2018-09-11T07:12:42.957Z,1016.36
2018-09-11T07:13:42.982Z,1016.31
2018-09-11T07:14:43.031Z,1016.46
2018-09-11T07:15:43.032Z,1016.45
2018-09-11T07:16:43.069Z,1016.49
2018-09-11T07:17:43.090Z,1016.51
2018-09-11T07:18:43.115Z,1016.34
2018-09-11T07:19:43.253Z,1016.38
2018-09-11T07:20:43.164Z,1016.36
2018-09-11T07:21:43.194Z,1016.41
2018-09-11T07:22:43.213Z,1016.52
2018-09-11T07:23:43.234Z,1016.47
2018-09-11T07:24:43.271Z,1016.42
2018-09-11T07:25:43.289Z,1016.43
2018-09-11T07:26:43.315Z,1016.43
2018-09-11T07:27:43.347Z,1016.42
2018-09-11T07:28:43.370Z,1016.47
2018-09-11T07:29:43.418Z,1016.59
2018-09-11T07:30:43.422Z,1016.63
2018-09-11T07:31:43.438Z,1016.52
2018-09-11T07:32:43.470Z,1016.55
2018-09-11T07:33:43.494Z,1016.59
2018-09-11T07:34:43.518Z,1016.52
2018-09-11T07:35:43.565Z,1016.63
2018-09-11T07:36:43.574Z,1016.52
2018-09-11T07:37:43.637Z,1016.58
2018-09-11T07:38:43.624Z,1016.54
2018-09-11T07:39:43.654Z,1016.54
2018-09-11T07:40:43.672Z,1016.51
2018-09-11T07:41:43.700Z,1016.47
2018-09-11T07:42:43.724Z,1016.48
2018-09-11T07:43:43.750Z,1016.37
2018-09-11T07:44:43.773Z,1016.34
2018-09-11T07:45:43.800Z,1016.21
2018-09-11T07:46:43.823Z,1016.43
2018-09-11T07:47:43.849Z,1016.35
2018-09-11T07:48:43.877Z,1016.34
2018-09-11T07:49:43.899Z,1016.40
2018-09-11T07:50:43.922Z,1016.35
2018-09-11T07:51:43.953Z,1016.51
2018-09-11T07:52:44.151Z,1016.51
2018-09-11T07:53:44.003Z,1016.43
2018-09-11T07:54:44.035Z,1016.31
2018-09-11T07:55:44.054Z,1016.29
2018-09-11T07:56:44.078Z,1016.15
2018-09-11T07:57:44.151Z,1016.06
2018-09-11T07:58:44.128Z,1016.15
2018-09-11T07:59:44.158Z,1016.13
2018-09-11T08:00:44.181Z,1016.06
2018-09-11T08:01:44.205Z,1016.02
2018-09-11T08:02:44.230Z,1016.03
2018-09-11T08:03:44.255Z,1015.84
2018-09-11T08:04:44.281Z,1015.92
2018-09-11T08:05:44.304Z,1016.00
2018-09-11T08:06:44.334Z,1015.93
2018-09-11T08:07:44.362Z,1016.07
2018-09-11T08:08:44.387Z,1016.10
2018-09-11T08:09:44.408Z,1016.14
2018-09-11T08:10:44.432Z,1016.20
2018-09-11T08:11:44.472Z,1016.17
2018-09-11T08:12:44.540Z,1016.12
2018-09-11T08:13:44.519Z,1016.17
2018-09-11T08:14:44.534Z,1016.06
2018-09-11T08:15:44.560Z,1016.09
2018-09-11T08:16:44.597Z,1016.12
2018-09-11T08:17:44.613Z,1016.20
2018-09-11T08:18:44.633Z,1016.19
2018-09-11T08:19:44.689Z,1016.20
2018-09-11T08:20:44.687Z,1016.21
2018-09-11T08:21:44.714Z,1016.25
2018-09-11T08:22:44.736Z,1016.26
2018-09-11T08:23:44.757Z,1016.35
2018-09-11T08:24:44.789Z,1016.38
2018-09-11T08:25:44.815Z,1016.40
2018-09-11T08:26:44.848Z,1016.45
2018-09-11T08:27:44.866Z,1016.40
2018-09-11T08:28:44.891Z,1016.49
2018-09-11T08:29:44.920Z,1016.53
2018-09-11T08:30:44.950Z,1016.44
2018-09-11T08:31:44.962Z,1016.40
2018-09-11T08:32:44.993Z,1016.39
2018-09-11T08:33:45.020Z,1016.38
2018-09-11T08:34:45.045Z,1016.30
2018-09-11T08:35:45.066Z,1016.47
2018-09-11T08:36:45.111Z,1016.36
2018-09-11T08:37:45.126Z,1016.39
2018-09-11T08:38:45.153Z,1016.58
2018-09-11T08:39:45.170Z,1016.53
2018-09-11T08:40:45.201Z,1016.42
2018-09-11T08:41:45.222Z,1016.37
2018-09-11T08:42:45.248Z,1016.41
2018-09-11T08:43:45.271Z,1016.38
2018-09-11T08:44:45.296Z,1016.28
2018-09-11T08:45:45.324Z,1016.31
2018-09-11T08:46:45.399Z,1016.40
2018-09-11T08:47:45.375Z,1016.29
2018-09-11T08:48:45.402Z,1016.39
2018-09-11T08:49:45.423Z,1016.40
2018-09-11T08:50:45.446Z,1016.37
2018-09-11T08:51:45.474Z,1016.28
2018-09-11T08:52:45.504Z,1016.19
2018-09-11T08:53:45.519Z,1016.37
2018-09-11T08:54:45.552Z,1016.34
2018-09-11T08:55:45.581Z,1016.42
2018-09-11T08:56:45.604Z,1016.35
2018-09-11T08:57:45.630Z,1016.44
2018-09-11T08:58:45.655Z,1016.60
2018-09-11T08:59:45.677Z,1016.51
2018-09-11T09:00:45.707Z,1016.46
2018-09-11T09:01:45.726Z,1016.43
2018-09-11T09:02:45.750Z,1016.49
2018-09-11T09:03:45.776Z,1016.51
2018-09-11T09:04:45.800Z,1016.47
2018-09-11T09:05:45.825Z,1016.69
2018-09-11T09:06:45.851Z,1016.68
2018-09-11T09:07:45.878Z,1016.59
2018-09-11T09:08:45.908Z,1016.48
2018-09-11T09:09:45.945Z,1016.65
2018-09-11T09:10:45.957Z,1016.78
2018-09-11T09:11:45.978Z,1016.57
2018-09-11T09:12:46.006Z,1016.51
2018-09-11T09:13:46.029Z,1016.69
2018-09-11T09:14:46.056Z,1016.73
2018-09-11T09:15:46.181Z,1016.63
2018-09-11T09:16:46.107Z,1016.74
2018-09-11T09:17:46.133Z,1016.71
2018-09-11T09:18:46.158Z,1016.73
2018-09-11T09:19:46.185Z,1016.73
2018-09-11T09:20:46.212Z,1016.58
2018-09-11T09:21:46.234Z,1016.61
2018-09-11T09:22:46.259Z,1016.61
2018-09-11T09:23:46.284Z,1016.63
2018-09-11T09:24:46.308Z,1016.38
2018-09-11T09:25:46.336Z,1016.40
2018-09-11T09:26:46.378Z,1016.41
2018-09-11T09:27:46.386Z,1016.48
2018-09-11T09:28:46.443Z,1016.30
2018-09-11T09:29:46.451Z,1016.35
2018-09-11T09:30:47.219Z,1016.29
2018-09-11T09:31:46.514Z,1016.35
2018-09-11T09:32:46.525Z,1016.34
2018-09-11T09:33:46.539Z,1016.37
2018-09-11T09:34:46.586Z,1016.27
2018-09-11T09:35:46.594Z,1016.36
2018-09-11T09:36:48.272Z,1016.32
2018-09-11T09:37:46.655Z,1016.21
2018-09-11T09:38:46.668Z,1016.12
2018-09-11T09:39:46.721Z,1016.13
2018-09-11T09:40:46.715Z,1016.29
2018-09-11T09:41:46.741Z,1016.04
2018-09-11T09:42:46.795Z,1016.18
2018-09-11T09:43:46.856Z,1016.15
2018-09-11T09:44:46.858Z,1016.23
2018-09-11T09:45:46.869Z,1016.38
2018-09-11T09:46:46.871Z,1016.28
2018-09-11T09:47:47.910Z,1016.42
2018-09-11T09:48:46.939Z,1016.25
2018-09-11T09:49:46.947Z,1016.34
2018-09-11T09:50:47.043Z,1016.26
2018-09-11T09:51:47.012Z,1016.26
2018-09-11T09:52:47.024Z,1016.20
2018-09-11T09:53:47.054Z,1016.20
2018-09-11T09:54:47.073Z,1016.21
2018-09-11T09:55:47.098Z,1016.18
2018-09-11T09:56:47.126Z,1016.26
2018-09-11T09:57:47.158Z,1016.29
2018-09-11T09:58:47.176Z,1016.30
2018-09-11T09:59:47.197Z,1016.30
2018-09-11T10:00:47.231Z,1016.30
2018-09-11T10:01:47.248Z,1016.26
2018-09-11T10:02:47.275Z,1016.32
2018-09-11T10:03:47.296Z,1016.33
2018-09-11T10:04:47.330Z,1016.32
2018-09-11T10:05:47.350Z,1016.32
2018-09-11T10:06:47.375Z,1016.32
2018-09-11T10:07:47.400Z,1016.37
2018-09-11T10:08:47.424Z,1016.39
2018-09-11T10:09:47.451Z,1016.38
2018-09-11T10:10:47.475Z,1016.43
2018-09-11T10:11:47.552Z,1016.44
2018-09-11T10:12:47.528Z,1016.43
2018-09-11T10:13:47.556Z,1016.43
2018-09-11T10:14:47.578Z,1016.40
2018-09-11T10:15:47.604Z,1016.47
2018-09-11T10:16:47.629Z,1016.49
2018-09-11T10:17:47.657Z,1016.50
2018-09-11T10:18:47.683Z,1016.53
2018-09-11T10:19:47.706Z,1016.56
2018-09-11T10:20:47.733Z,1016.49
2018-09-11T10:21:47.757Z,1016.50
2018-09-11T10:22:47.780Z,1016.47
2018-09-11T10:23:47.806Z,1016.49
2018-09-11T10:24:47.834Z,1016.50
2018-09-11T10:25:47.857Z,1016.40
2018-09-11T10:26:47.885Z,1016.40
2018-09-11T10:27:47.906Z,1016.24
2018-09-11T10:28:47.932Z,1016.37
2018-09-11T10:29:47.963Z,1016.46
2018-09-11T10:30:47.985Z,1016.45
2018-09-11T10:31:48.010Z,1016.30
2018-09-11T10:32:48.036Z,1016.24
2018-09-11T10:33:48.092Z,1016.30
2018-09-11T10:34:48.088Z,1016.26
2018-09-11T10:35:48.114Z,1016.19
2018-09-11T10:36:48.135Z,1016.26
2018-09-11T10:37:48.168Z,1016.21
2018-09-11T10:38:48.192Z,1016.26
2018-09-11T10:39:48.228Z,1016.29
2018-09-11T10:40:48.236Z,1016.27
2018-09-11T10:41:48.264Z,1016.21
2018-09-11T10:42:48.288Z,1016.22
2018-09-11T10:43:48.312Z,1016.28
2018-09-11T10:44:48.392Z,1016.27
2018-09-11T10:45:48.366Z,1016.32
2018-09-11T10:46:48.392Z,1016.24
2018-09-11T10:47:48.413Z,1016.33
2018-09-11T10:48:48.482Z,1016.26
2018-09-11T10:49:48.462Z,1016.21
2018-09-11T10:50:48.488Z,1016.21
2018-09-11T10:51:48.596Z,1016.27
2018-09-11T10:52:48.543Z,1016.21
2018-09-11T10:53:48.578Z,1016.24
2018-09-11T10:54:48.590Z,1016.22
2018-09-11T10:55:48.617Z,1016.25
2018-09-11T10:56:48.649Z,1016.29
2018-09-11T10:57:48.669Z,1016.25
2018-09-11T10:58:48.693Z,1016.23
2018-09-11T10:59:48.718Z,1016.22
2018-09-11T11:00:48.746Z,1016.25
2018-09-11T11:01:48.813Z,1016.22
2018-09-11T11:02:48.792Z,1016.26
2018-09-11T11:03:48.822Z,1016.30
2018-09-11T11:04:48.844Z,1016.30
2018-09-11T11:05:48.873Z,1016.25
2018-09-11T11:06:48.889Z,1016.18
2018-09-11T11:07:48.920Z,1016.16
2018-09-11T11:08:48.959Z,1016.16
2018-09-11T11:09:48.982Z,1016.16
2018-09-11T11:10:49.014Z,1016.12
2018-09-11T11:11:49.026Z,1016.18
2018-09-11T11:12:49.049Z,1016.14
2018-09-11T11:13:49.074Z,1016.12
2018-09-11T11:14:49.100Z,1015.99
2018-09-11T11:15:49.125Z,1016.03
2018-09-11T11:16:49.149Z,1016.08
2018-09-11T11:17:49.175Z,1016.06
2018-09-11T11:18:49.200Z,1016.08
2018-09-11T11:19:49.225Z,1016.08
2018-09-11T11:20:49.257Z,1016.03
2018-09-11T11:21:49.276Z,1016.00
2018-09-11T11:22:49.302Z,1015.93
2018-09-11T11:23:49.327Z,1015.91
2018-09-11T11:24:49.351Z,1015.92
2018-09-11T11:25:49.378Z,1015.91
2018-09-11T11:26:49.449Z,1015.96
2018-09-11T11:27:49.427Z,1015.88
2018-09-11T11:28:49.451Z,1015.92
2018-09-11T11:29:49.479Z,1015.88
2018-09-11T11:30:49.495Z,1015.93
2018-09-11T11:31:49.530Z,1015.91
2018-09-11T11:32:49.557Z,1015.98
2018-09-11T11:33:49.582Z,1015.97
2018-09-11T11:34:49.623Z,1016.02
2018-09-11T11:35:49.629Z,1016.07
2018-09-11T11:36:49.776Z,1016.10
2018-09-11T11:37:49.686Z,1016.05
2018-09-11T11:38:49.711Z,1016.12
2018-09-11T11:39:49.738Z,1016.16
2018-09-11T11:40:49.766Z,1016.04
2018-09-11T11:41:49.816Z,1016.10
2018-09-11T11:42:49.816Z,1016.06
2018-09-11T11:43:49.831Z,1016.10
2018-09-11T11:44:49.856Z,1016.18
2018-09-11T11:45:49.884Z,1016.12
2018-09-11T11:46:49.922Z,1016.12
2018-09-11T11:47:49.935Z,1016.18
2018-09-11T11:48:49.964Z,1016.12
2018-09-11T11:49:49.985Z,1016.14
2018-09-11T11:50:50.008Z,1016.12
2018-09-11T11:51:50.034Z,1016.09
2018-09-11T11:52:50.074Z,1016.15
2018-09-11T11:53:50.088Z,1016.07
2018-09-11T11:54:50.147Z,1016.11
2018-09-11T11:55:50.137Z,1016.05
2018-09-11T11:56:50.276Z,1016.03
2018-09-11T11:57:50.187Z,1016.00
2018-09-11T11:58:50.227Z,1016.03
2018-09-11T11:59:50.242Z,1016.07
2018-09-11T12:00:50.294Z,1016.14
2018-09-11T12:01:50.341Z,1016.08
2018-09-11T12:02:50.322Z,1016.10
2018-09-11T12:03:50.338Z,1016.06
2018-09-11T12:04:50.397Z,1016.00
2018-09-11T12:05:50.394Z,1016.14
2018-09-11T12:06:50.418Z,1016.01